TAF LEXJ
LEXJ 280800Z 2809/2909 30012KT 9999 SCT015 BKN030 TX13/2823Z TN09/2809Z TEMPO 2809/2815 34019G30KT TEMPO 2809/2909 3000 RA SHRA BKN012 BKN025TCU PROB30 TEMPO 2809/2812 1500 SHRAGS TS BKN008 SCT025CB PROB40 TEMPO 2818/2824 1500 RA BKN008 TEMPO 2822/2906 29022G34KT=
METAR LEXJ
LEXJ 280930Z 31009KT 260V010 6000 -RA SCT040TCU BKN065 10/05 Q1016 RESHRA=
LEXJ 280900Z 34019G32KT 300V020 2500 SHRA SCT035TCU BKN060 07/03 Q1016=
LEXJ 280830Z 30019KT 280V340 6000 SHRA SCT035TCU BKN055 08/04 Q1016=
LEXJ 280800Z 31014G26KT 280V350 3500 SHRA SCT035TCU BKN060 09/04 Q1015=
LEXJ 280730Z 33012G22KT 290V010 9999 -RA SCT035 BKN060 09/04 Q1015=
WC LEXJ
WS LEXJ
WV LEXJ